createdAt,value
2023-03-06T00:01:17.743Z,67.78
2023-03-06T00:06:20.153Z,68.08
2023-03-06T00:11:22.733Z,68.15
2023-03-06T00:16:26.322Z,68.12
2023-03-06T00:21:34.500Z,67.89
2023-03-06T00:26:37.569Z,68.26
2023-03-06T00:31:47.270Z,68.28
2023-03-06T00:36:55.118Z,68.13
2023-03-06T00:41:58.096Z,68.29
2023-03-06T00:47:00.772Z,68.35
2023-03-06T00:52:04.064Z,68.32
2023-03-06T00:57:12.447Z,68.57
2023-03-06T01:02:15.056Z,69.16
2023-03-06T01:07:17.715Z,68.98
2023-03-06T01:12:22.794Z,68.85
2023-03-06T01:17:26.825Z,69.31
2023-03-06T01:22:29.362Z,69.48
2023-03-06T01:27:31.913Z,69.61
2023-03-06T01:32:34.853Z,69.88
2023-03-06T01:37:38.242Z,70.00
2023-03-06T01:42:48.672Z,69.64
2023-03-06T01:47:51.265Z,68.79
2023-03-06T01:52:58.743Z,68.73
2023-03-06T01:58:07.170Z,68.79
2023-03-06T02:03:14.418Z,68.77
2023-03-06T02:08:19.675Z,68.59
2023-03-06T02:13:22.293Z,68.48
2023-03-06T02:18:28.993Z,68.59
2023-03-06T02:23:54.091Z,68.88
2023-03-06T02:28:58.719Z,68.88
2023-03-06T02:34:05.332Z,68.24
2023-03-06T02:39:09.488Z,68.14
2023-03-06T02:44:13.347Z,68.30
2023-03-06T02:49:15.991Z,68.54
2023-03-06T02:54:18.745Z,68.91
2023-03-06T02:59:21.549Z,68.50
2023-03-06T03:04:24.225Z,68.77
2023-03-06T03:09:27.200Z,68.76
2023-03-06T03:14:30.590Z,68.86
2023-03-06T03:19:33.375Z,68.23
2023-03-06T03:24:36.082Z,68.27
2023-03-06T03:29:39.567Z,68.29
2023-03-06T03:34:42.103Z,68.26
2023-03-06T03:39:44.810Z,68.90
2023-03-06T03:44:48.393Z,68.63
2023-03-06T03:49:52.757Z,68.82
2023-03-06T03:54:57.389Z,68.44
2023-03-06T04:00:01.210Z,68.85
2023-03-06T04:05:34.180Z,68.74
2023-03-06T04:10:42.250Z,69.16
2023-03-06T04:15:51.434Z,68.37
2023-03-06T04:21:00.416Z,67.27
2023-03-06T04:26:28.630Z,65.88
2023-03-06T04:31:31.686Z,65.56
2023-03-06T04:36:37.945Z,65.03
2023-03-06T04:41:46.755Z,63.94
2023-03-06T04:47:12.682Z,62.79
2023-03-06T04:52:15.281Z,61.94
2023-03-06T04:57:18.724Z,61.03
2023-03-06T05:02:40.637Z,59.48
2023-03-06T05:07:54.085Z,58.23
2023-03-06T05:18:45.255Z,57.60
2023-03-06T05:23:59.212Z,57.74
2023-03-06T05:29:01.947Z,57.96
2023-03-06T05:34:04.807Z,58.44
2023-03-06T05:39:07.548Z,58.86
2023-03-06T05:44:14.362Z,58.97
2023-03-06T05:49:17.675Z,58.87
2023-03-06T05:54:27.599Z,59.06
2023-03-06T05:59:31.866Z,59.16
2023-03-06T06:04:35.707Z,59.54
2023-03-06T06:09:38.355Z,59.39
2023-03-06T06:14:41.012Z,59.28
2023-03-06T06:19:43.547Z,58.50
2023-03-06T06:24:46.189Z,57.56
2023-03-06T06:29:52.768Z,57.46
2023-03-06T06:34:58.690Z,57.41
2023-03-06T06:40:01.529Z,57.00
2023-03-06T06:45:06.921Z,56.79
2023-03-06T06:50:13.971Z,56.55
2023-03-06T06:55:16.941Z,56.12
2023-03-06T07:00:20.307Z,55.54
2023-03-06T07:05:22.875Z,55.06
2023-03-06T07:10:26.360Z,55.07
2023-03-06T07:15:31.914Z,54.21
2023-03-06T07:20:37.488Z,53.60
2023-03-06T07:25:41.306Z,53.07
2023-03-06T07:30:51.452Z,52.68
2023-03-06T07:35:58.065Z,52.52
2023-03-06T07:41:00.981Z,52.73
2023-03-06T07:46:13.621Z,52.71
2023-03-06T07:51:22.368Z,52.62
2023-03-06T07:56:37.666Z,53.04
2023-03-06T08:01:40.484Z,53.04
2023-03-06T08:06:43.042Z,52.70
2023-03-06T08:11:46.300Z,51.48
2023-03-06T08:16:50.895Z,50.32
2023-03-06T08:21:53.586Z,49.07
2023-03-06T08:26:57.292Z,48.49
2023-03-06T08:32:19.745Z,47.32
2023-03-06T08:37:26.293Z,46.83
2023-03-06T08:42:28.935Z,44.42
2023-03-06T08:47:31.605Z,42.61
2023-03-06T08:52:40.498Z,41.97
2023-03-06T08:57:43.142Z,40.46
2023-03-06T09:02:49.012Z,40.46
2023-03-06T09:07:52.041Z,38.09
2023-03-06T09:12:56.124Z,37.88
2023-03-06T09:17:59.357Z,37.25
2023-03-06T09:23:14.478Z,36.91
2023-03-06T09:28:24.196Z,35.54
2023-03-06T09:33:28.889Z,34.83
2023-03-06T09:38:32.169Z,35.17
2023-03-06T09:43:44.964Z,36.44
2023-03-06T09:49:14.477Z,37.50
2023-03-06T09:54:20.470Z,37.63
2023-03-06T09:59:27.707Z,37.26
2023-03-06T10:04:50.496Z,37.01
2023-03-06T10:10:04.907Z,36.25
2023-03-06T10:15:27.156Z,35.26
2023-03-06T10:21:19.305Z,34.95
2023-03-06T10:27:11.637Z,36.70
2023-03-06T10:32:47.530Z,37.11
2023-03-06T10:37:51.190Z,37.65
2023-03-06T10:43:05.071Z,37.10
2023-03-06T10:48:20.494Z,37.55
2023-03-06T10:53:31.908Z,37.50
2023-03-06T10:58:37.799Z,36.88
2023-03-06T11:03:41.602Z,36.87
2023-03-06T11:08:45.574Z,37.14
2023-03-06T11:14:01.351Z,37.07
2023-03-06T11:19:07.572Z,36.91
2023-03-06T11:24:27.353Z,36.92
2023-03-06T11:29:30.539Z,37.16
2023-03-06T11:34:50.646Z,38.03
2023-03-06T11:39:59.735Z,38.59
2023-03-06T11:45:13.724Z,39.06
2023-03-06T11:50:45.691Z,38.75
2023-03-06T11:56:10.665Z,40.22
2023-03-06T12:01:37.126Z,40.18
2023-03-06T12:06:46.401Z,40.15
2023-03-06T12:12:41.466Z,41.27
2023-03-06T12:18:07.443Z,41.82
2023-03-06T12:23:50.033Z,42.13
2023-03-06T12:29:12.029Z,42.05
2023-03-06T12:34:34.126Z,42.17
2023-03-06T12:40:16.387Z,42.29
2023-03-06T12:45:39.951Z,42.47
2023-03-06T12:50:46.502Z,42.31
2023-03-06T12:55:53.730Z,42.34
2023-03-06T13:01:20.065Z,42.50
2023-03-06T13:06:45.050Z,42.80
2023-03-06T13:12:48.258Z,43.09
2023-03-06T13:17:54.943Z,43.07
2023-03-06T13:22:58.764Z,43.73
2023-03-06T13:28:05.297Z,43.82
2023-03-06T13:33:42.572Z,44.33
2023-03-06T13:38:45.145Z,44.34
2023-03-06T13:43:49.053Z,44.60
2023-03-06T13:49:09.866Z,44.70
2023-03-06T13:54:22.339Z,44.48
2023-03-06T13:59:40.137Z,44.73
2023-03-06T14:05:03.094Z,44.96
2023-03-06T14:10:14.701Z,45.12
2023-03-06T14:15:41.520Z,45.74
2023-03-06T14:20:45.600Z,46.31
2023-03-06T14:26:02.935Z,46.77
2023-03-06T14:31:07.432Z,47.54
2023-03-06T14:36:20.263Z,47.88
2023-03-06T14:41:35.583Z,47.85
2023-03-06T14:46:39.574Z,48.21
2023-03-06T14:51:45.939Z,48.45
2023-03-06T14:56:54.712Z,48.77
2023-03-06T15:02:05.140Z,48.96
2023-03-06T15:07:12.930Z,48.76
2023-03-06T15:12:21.602Z,48.93
2023-03-06T15:17:29.018Z,49.14
2023-03-06T15:22:41.694Z,49.16
2023-03-06T15:28:28.795Z,49.57
2023-03-06T15:33:31.520Z,49.53
2023-03-06T15:44:22.799Z,50.42
2023-03-06T15:49:40.699Z,50.43
2023-03-06T15:55:05.139Z,50.79
2023-03-06T16:00:38.680Z,50.82
2023-03-06T16:05:42.958Z,50.84
2023-03-06T16:10:48.094Z,50.76
2023-03-06T16:16:04.447Z,50.71
2023-03-06T16:21:12.305Z,50.94
2023-03-06T16:26:33.145Z,51.29
2023-03-06T16:31:49.111Z,51.49
2023-03-06T16:37:18.750Z,51.50
2023-03-06T16:48:31.101Z,52.17
2023-03-06T16:53:39.552Z,52.13
2023-03-06T16:58:43.220Z,51.93
2023-03-06T17:03:46.367Z,51.58
2023-03-06T17:08:50.308Z,51.70
2023-03-06T17:13:56.706Z,52.06
2023-03-06T17:19:00.151Z,52.59
2023-03-06T17:24:08.828Z,52.74
2023-03-06T17:29:12.321Z,53.24
2023-03-06T17:34:14.852Z,53.31
2023-03-06T17:39:17.356Z,53.92
2023-03-06T17:44:20.424Z,53.86
2023-03-06T17:49:25.402Z,53.79
2023-03-06T17:54:30.188Z,54.73
2023-03-06T17:59:34.628Z,54.49
2023-03-06T18:04:37.833Z,55.02
2023-03-06T18:09:43.130Z,55.45
2023-03-06T18:14:45.778Z,55.76
2023-03-06T18:19:48.337Z,56.38
2023-03-06T18:24:51.667Z,56.41
2023-03-06T18:29:55.795Z,56.67
2023-03-06T18:34:58.605Z,56.45
2023-03-06T18:40:01.253Z,56.53
2023-03-06T18:45:05.706Z,56.74
2023-03-06T18:50:08.722Z,57.25
2023-03-06T18:55:11.374Z,56.90
2023-03-06T19:00:15.669Z,56.71
2023-03-06T19:05:18.469Z,56.50
2023-03-06T19:10:21.308Z,56.56
2023-03-06T19:15:23.826Z,56.76
2023-03-06T19:20:27.136Z,57.37
2023-03-06T19:25:29.650Z,57.13
2023-03-06T19:30:33.704Z,57.92
2023-03-06T19:35:36.522Z,58.29
2023-03-06T19:40:39.107Z,58.32
2023-03-06T19:45:45.067Z,58.86
2023-03-06T19:50:47.912Z,58.57
2023-03-06T19:55:50.487Z,58.70
2023-03-06T20:00:52.990Z,58.31
2023-03-06T20:05:55.437Z,58.06
2023-03-06T20:10:57.959Z,58.24
2023-03-06T20:16:03.490Z,58.29
2023-03-06T20:21:06.217Z,57.92
2023-03-06T20:26:12.233Z,57.78
2023-03-06T20:31:21.736Z,58.47
2023-03-06T20:36:29.025Z,58.09
2023-03-06T20:41:32.637Z,58.34
2023-03-06T20:46:35.829Z,58.71
2023-03-06T20:51:39.936Z,59.02
2023-03-06T20:56:46.200Z,58.79
2023-03-06T21:01:49.379Z,59.24
2023-03-06T21:06:53.958Z,59.59
2023-03-06T21:11:56.994Z,59.83
2023-03-06T21:17:01.410Z,59.75
2023-03-06T21:22:04.091Z,59.64
2023-03-06T21:27:07.574Z,59.54
2023-03-06T21:32:10.018Z,60.29
2023-03-06T21:37:12.595Z,60.18
2023-03-06T21:42:15.134Z,60.20
2023-03-06T21:47:17.701Z,59.87
2023-03-06T21:52:20.207Z,59.90
2023-03-06T21:57:22.689Z,59.37
2023-03-06T22:02:25.354Z,59.88
2023-03-06T22:07:28.616Z,59.42
2023-03-06T22:12:31.224Z,59.08
2023-03-06T22:17:33.844Z,58.69
2023-03-06T22:22:36.385Z,58.81
2023-03-06T22:27:38.946Z,58.53
2023-03-06T22:32:41.480Z,58.74
2023-03-06T22:37:44.118Z,59.07
2023-03-06T22:42:46.629Z,59.25
2023-03-06T22:47:49.132Z,59.73
2023-03-06T22:52:51.698Z,58.99
2023-03-06T22:57:54.408Z,58.99
2023-03-06T23:02:56.964Z,59.09
2023-03-06T23:07:59.538Z,58.46
2023-03-06T23:13:01.945Z,58.60
2023-03-06T23:18:23.007Z,58.35
2023-03-06T23:23:48.685Z,58.53
2023-03-06T23:28:51.938Z,58.59
2023-03-06T23:33:56.748Z,59.08
2023-03-06T23:38:59.342Z,59.00
2023-03-06T23:44:03.364Z,59.23
2023-03-06T23:49:07.515Z,59.10
2023-03-06T23:54:10.563Z,58.63
2023-03-06T23:59:13.189Z,58.12
